sensor_id;sensor_type;location;lat;lon;timestamp;P1;durP1;ratioP1;P2;durP2;ratioP2
2892;SDS011;1456;51.840;12.184;2024-03-02T00:01:11;67.10;;;32.90;;
2892;SDS011;1456;51.840;12.184;2024-03-02T00:03:37;54.80;;;29.53;;
2892;SDS011;1456;51.840;12.184;2024-03-02T00:06:03;54.87;;;29.07;;
2892;SDS011;1456;51.840;12.184;2024-03-02T00:08:29;63.23;;;32.70;;
2892;SDS011;1456;51.840;12.184;2024-03-02T00:10:58;54.93;;;32.13;;
2892;SDS011;1456;51.840;12.184;2024-03-02T00:13:25;57.60;;;31.87;;
2892;SDS011;1456;51.840;12.184;2024-03-02T00:15:55;65.30;;;31.03;;
2892;SDS011;1456;51.840;12.184;2024-03-02T00:20:52;58.23;;;32.23;;
2892;SDS011;1456;51.840;12.184;2024-03-02T00:23:20;53.63;;;31.00;;
2892;SDS011;1456;51.840;12.184;2024-03-02T00:25:47;58.27;;;28.87;;
2892;SDS011;1456;51.840;12.184;2024-03-02T00:28:24;59.20;;;27.93;;
2892;SDS011;1456;51.840;12.184;2024-03-02T00:33:36;58.57;;;31.20;;
2892;SDS011;1456;51.840;12.184;2024-03-02T00:36:05;57.57;;;31.27;;
2892;SDS011;1456;51.840;12.184;2024-03-02T00:38:32;56.40;;;31.27;;
2892;SDS011;1456;51.840;12.184;2024-03-02T00:40:59;55.00;;;32.17;;
2892;SDS011;1456;51.840;12.184;2024-03-02T00:43:42;69.83;;;33.23;;
2892;SDS011;1456;51.840;12.184;2024-03-02T00:46:11;61.57;;;32.47;;
2892;SDS011;1456;51.840;12.184;2024-03-02T00:48:38;52.00;;;28.77;;
2892;SDS011;1456;51.840;12.184;2024-03-02T00:51:06;61.30;;;29.50;;
2892;SDS011;1456;51.840;12.184;2024-03-02T00:53:34;64.13;;;31.97;;
2892;SDS011;1456;51.840;12.184;2024-03-02T00:56:00;49.30;;;30.60;;
2892;SDS011;1456;51.840;12.184;2024-03-02T00:58:26;51.80;;;30.63;;
2892;SDS011;1456;51.840;12.184;2024-03-02T01:00:52;62.47;;;31.83;;
2892;SDS011;1456;51.840;12.184;2024-03-02T01:03:18;52.63;;;29.27;;
2892;SDS011;1456;51.840;12.184;2024-03-02T01:05:44;59.40;;;31.90;;
2892;SDS011;1456;51.840;12.184;2024-03-02T01:08:10;59.03;;;32.77;;
2892;SDS011;1456;51.840;12.184;2024-03-02T01:10:36;61.27;;;30.17;;
2892;SDS011;1456;51.840;12.184;2024-03-02T01:13:07;60.13;;;30.53;;
2892;SDS011;1456;51.840;12.184;2024-03-02T01:15:33;56.50;;;29.77;;
2892;SDS011;1456;51.840;12.184;2024-03-02T01:17:58;52.20;;;29.20;;
2892;SDS011;1456;51.840;12.184;2024-03-02T01:20:24;60.33;;;31.50;;
2892;SDS011;1456;51.840;12.184;2024-03-02T01:22:49;60.60;;;33.30;;
2892;SDS011;1456;51.840;12.184;2024-03-02T01:25:15;51.17;;;30.70;;
2892;SDS011;1456;51.840;12.184;2024-03-02T01:27:41;54.73;;;29.40;;
2892;SDS011;1456;51.840;12.184;2024-03-02T01:30:07;60.97;;;29.47;;
2892;SDS011;1456;51.840;12.184;2024-03-02T01:32:33;60.97;;;30.37;;
2892;SDS011;1456;51.840;12.184;2024-03-02T01:34:58;52.70;;;29.20;;
2892;SDS011;1456;51.840;12.184;2024-03-02T01:37:24;58.03;;;30.87;;
2892;SDS011;1456;51.840;12.184;2024-03-02T01:39:49;60.37;;;30.77;;
2892;SDS011;1456;51.840;12.184;2024-03-02T01:42:15;54.27;;;31.73;;
2892;SDS011;1456;51.840;12.184;2024-03-02T01:44:41;58.40;;;30.10;;
2892;SDS011;1456;51.840;12.184;2024-03-02T01:47:06;58.67;;;30.67;;
2892;SDS011;1456;51.840;12.184;2024-03-02T01:49:32;53.10;;;30.40;;
2892;SDS011;1456;51.840;12.184;2024-03-02T01:51:59;55.47;;;30.50;;
2892;SDS011;1456;51.840;12.184;2024-03-02T01:54:24;55.50;;;28.87;;
2892;SDS011;1456;51.840;12.184;2024-03-02T01:56:50;61.93;;;32.27;;
2892;SDS011;1456;51.840;12.184;2024-03-02T01:59:16;56.37;;;30.90;;
2892;SDS011;1456;51.840;12.184;2024-03-02T02:01:41;56.77;;;32.20;;
2892;SDS011;1456;51.840;12.184;2024-03-02T02:04:07;55.40;;;31.27;;
2892;SDS011;1456;51.840;12.184;2024-03-02T02:06:33;52.23;;;30.43;;
2892;SDS011;1456;51.840;12.184;2024-03-02T02:08:58;56.87;;;31.33;;
2892;SDS011;1456;51.840;12.184;2024-03-02T02:11:24;54.20;;;31.77;;
2892;SDS011;1456;51.840;12.184;2024-03-02T02:13:50;57.50;;;31.07;;
2892;SDS011;1456;51.840;12.184;2024-03-02T02:16:15;60.00;;;28.80;;
2892;SDS011;1456;51.840;12.184;2024-03-02T02:18:41;55.00;;;31.87;;
2892;SDS011;1456;51.840;12.184;2024-03-02T02:21:07;60.10;;;31.90;;
2892;SDS011;1456;51.840;12.184;2024-03-02T02:23:32;55.47;;;31.87;;
2892;SDS011;1456;51.840;12.184;2024-03-02T02:25:59;63.13;;;31.37;;
2892;SDS011;1456;51.840;12.184;2024-03-02T02:28:24;65.17;;;33.60;;
2892;SDS011;1456;51.840;12.184;2024-03-02T02:30:50;55.90;;;32.13;;
2892;SDS011;1456;51.840;12.184;2024-03-02T02:33:15;55.93;;;31.80;;
2892;SDS011;1456;51.840;12.184;2024-03-02T02:35:41;52.53;;;30.67;;
2892;SDS011;1456;51.840;12.184;2024-03-02T02:38:06;62.43;;;30.17;;
2892;SDS011;1456;51.840;12.184;2024-03-02T02:40:32;58.33;;;31.83;;
2892;SDS011;1456;51.840;12.184;2024-03-02T02:42:58;58.33;;;32.07;;
2892;SDS011;1456;51.840;12.184;2024-03-02T02:45:26;60.57;;;32.80;;
2892;SDS011;1456;51.840;12.184;2024-03-02T02:47:52;67.47;;;34.37;;
2892;SDS011;1456;51.840;12.184;2024-03-02T02:50:17;66.60;;;32.80;;
2892;SDS011;1456;51.840;12.184;2024-03-02T02:52:43;57.20;;;31.97;;
2892;SDS011;1456;51.840;12.184;2024-03-02T02:55:09;55.30;;;31.00;;
2892;SDS011;1456;51.840;12.184;2024-03-02T02:57:36;55.47;;;29.57;;
2892;SDS011;1456;51.840;12.184;2024-03-02T03:00:08;58.20;;;29.63;;
2892;SDS011;1456;51.840;12.184;2024-03-02T03:02:38;55.47;;;31.00;;
2892;SDS011;1456;51.840;12.184;2024-03-02T03:05:06;59.57;;;31.33;;
2892;SDS011;1456;51.840;12.184;2024-03-02T03:07:33;54.50;;;31.63;;
2892;SDS011;1456;51.840;12.184;2024-03-02T03:09:59;58.23;;;30.97;;
2892;SDS011;1456;51.840;12.184;2024-03-02T03:12:26;59.37;;;31.43;;
2892;SDS011;1456;51.840;12.184;2024-03-02T03:14:51;63.80;;;32.83;;
2892;SDS011;1456;51.840;12.184;2024-03-02T03:17:17;62.27;;;31.50;;
2892;SDS011;1456;51.840;12.184;2024-03-02T03:19:43;62.73;;;29.90;;
2892;SDS011;1456;51.840;12.184;2024-03-02T03:22:09;66.43;;;32.07;;
2892;SDS011;1456;51.840;12.184;2024-03-02T03:24:34;62.57;;;34.07;;
2892;SDS011;1456;51.840;12.184;2024-03-02T03:27:00;64.13;;;34.93;;
2892;SDS011;1456;51.840;12.184;2024-03-02T03:29:25;64.97;;;32.60;;
2892;SDS011;1456;51.840;12.184;2024-03-02T03:31:51;69.87;;;33.80;;
2892;SDS011;1456;51.840;12.184;2024-03-02T03:34:17;64.47;;;33.50;;
2892;SDS011;1456;51.840;12.184;2024-03-02T03:36:42;60.67;;;30.40;;
2892;SDS011;1456;51.840;12.184;2024-03-02T03:39:08;61.47;;;30.10;;
2892;SDS011;1456;51.840;12.184;2024-03-02T03:41:34;63.83;;;33.23;;
2892;SDS011;1456;51.840;12.184;2024-03-02T03:43:59;59.43;;;32.20;;
2892;SDS011;1456;51.840;12.184;2024-03-02T03:46:25;59.70;;;33.20;;
2892;SDS011;1456;51.840;12.184;2024-03-02T03:48:50;66.83;;;30.57;;
2892;SDS011;1456;51.840;12.184;2024-03-02T03:51:16;62.77;;;32.77;;
2892;SDS011;1456;51.840;12.184;2024-03-02T03:53:41;61.20;;;31.30;;
2892;SDS011;1456;51.840;12.184;2024-03-02T03:56:07;66.33;;;34.00;;
2892;SDS011;1456;51.840;12.184;2024-03-02T03:58:33;62.13;;;32.77;;
2892;SDS011;1456;51.840;12.184;2024-03-02T04:00:58;54.40;;;32.43;;
2892;SDS011;1456;51.840;12.184;2024-03-02T04:03:24;66.20;;;32.20;;
2892;SDS011;1456;51.840;12.184;2024-03-02T04:05:50;60.23;;;33.70;;
2892;SDS011;1456;51.840;12.184;2024-03-02T04:08:16;53.77;;;29.30;;
2892;SDS011;1456;51.840;12.184;2024-03-02T04:10:41;62.73;;;33.77;;
2892;SDS011;1456;51.840;12.184;2024-03-02T04:13:07;56.77;;;33.63;;
2892;SDS011;1456;51.840;12.184;2024-03-02T04:15:33;61.90;;;32.37;;
2892;SDS011;1456;51.840;12.184;2024-03-02T04:17:58;52.83;;;30.10;;
2892;SDS011;1456;51.840;12.184;2024-03-02T04:20:24;53.90;;;30.07;;
2892;SDS011;1456;51.840;12.184;2024-03-02T04:22:50;63.77;;;32.40;;
2892;SDS011;1456;51.840;12.184;2024-03-02T04:25:16;60.17;;;32.50;;
2892;SDS011;1456;51.840;12.184;2024-03-02T04:27:41;53.57;;;31.10;;
2892;SDS011;1456;51.840;12.184;2024-03-02T04:30:07;58.10;;;32.37;;
2892;SDS011;1456;51.840;12.184;2024-03-02T04:32:33;57.40;;;31.30;;
2892;SDS011;1456;51.840;12.184;2024-03-02T04:34:58;59.30;;;31.50;;
2892;SDS011;1456;51.840;12.184;2024-03-02T04:37:24;62.30;;;33.27;;
2892;SDS011;1456;51.840;12.184;2024-03-02T04:39:50;57.63;;;31.27;;
2892;SDS011;1456;51.840;12.184;2024-03-02T04:42:15;58.53;;;32.47;;
2892;SDS011;1456;51.840;12.184;2024-03-02T04:44:41;56.50;;;30.67;;
2892;SDS011;1456;51.840;12.184;2024-03-02T04:47:06;61.60;;;29.73;;
2892;SDS011;1456;51.840;12.184;2024-03-02T04:49:32;59.50;;;31.67;;
2892;SDS011;1456;51.840;12.184;2024-03-02T04:51:58;60.17;;;32.37;;
2892;SDS011;1456;51.840;12.184;2024-03-02T04:54:23;56.43;;;30.30;;
2892;SDS011;1456;51.840;12.184;2024-03-02T04:56:49;65.73;;;32.77;;
2892;SDS011;1456;51.840;12.184;2024-03-02T04:59:15;57.07;;;30.73;;
2892;SDS011;1456;51.840;12.184;2024-03-02T05:01:42;54.10;;;31.17;;
2892;SDS011;1456;51.840;12.184;2024-03-02T05:04:08;55.17;;;30.10;;
2892;SDS011;1456;51.840;12.184;2024-03-02T05:06:36;55.97;;;29.17;;
2892;SDS011;1456;51.840;12.184;2024-03-02T05:09:08;58.70;;;31.67;;
2892;SDS011;1456;51.840;12.184;2024-03-02T05:11:34;50.73;;;31.00;;
2892;SDS011;1456;51.840;12.184;2024-03-02T05:14:06;55.47;;;30.40;;
2892;SDS011;1456;51.840;12.184;2024-03-02T05:16:34;59.90;;;30.50;;
2892;SDS011;1456;51.840;12.184;2024-03-02T05:19:01;59.53;;;29.37;;
2892;SDS011;1456;51.840;12.184;2024-03-02T05:21:27;58.83;;;32.90;;
2892;SDS011;1456;51.840;12.184;2024-03-02T05:23:53;63.60;;;32.20;;
2892;SDS011;1456;51.840;12.184;2024-03-02T05:26:18;52.10;;;31.77;;
2892;SDS011;1456;51.840;12.184;2024-03-02T05:28:44;58.60;;;31.10;;
2892;SDS011;1456;51.840;12.184;2024-03-02T05:31:14;61.67;;;30.77;;
2892;SDS011;1456;51.840;12.184;2024-03-02T05:33:41;58.77;;;31.97;;
2892;SDS011;1456;51.840;12.184;2024-03-02T05:36:07;64.30;;;33.27;;
2892;SDS011;1456;51.840;12.184;2024-03-02T05:38:36;63.33;;;31.20;;
2892;SDS011;1456;51.840;12.184;2024-03-02T05:41:02;60.67;;;33.40;;
2892;SDS011;1456;51.840;12.184;2024-03-02T05:43:28;64.00;;;33.80;;
2892;SDS011;1456;51.840;12.184;2024-03-02T05:45:54;62.17;;;31.60;;
2892;SDS011;1456;51.840;12.184;2024-03-02T05:48:19;56.63;;;30.73;;
2892;SDS011;1456;51.840;12.184;2024-03-02T05:50:45;52.33;;;27.87;;
2892;SDS011;1456;51.840;12.184;2024-03-02T05:53:10;60.73;;;32.47;;
2892;SDS011;1456;51.840;12.184;2024-03-02T05:55:36;55.70;;;31.07;;
2892;SDS011;1456;51.840;12.184;2024-03-02T05:58:02;60.90;;;31.67;;
2892;SDS011;1456;51.840;12.184;2024-03-02T06:00:30;64.77;;;31.77;;
2892;SDS011;1456;51.840;12.184;2024-03-02T06:02:56;57.27;;;32.47;;
2892;SDS011;1456;51.840;12.184;2024-03-02T06:05:21;59.00;;;32.10;;
2892;SDS011;1456;51.840;12.184;2024-03-02T06:07:47;61.57;;;32.77;;
2892;SDS011;1456;51.840;12.184;2024-03-02T06:10:13;54.87;;;30.00;;
2892;SDS011;1456;51.840;12.184;2024-03-02T06:12:39;57.00;;;31.33;;
2892;SDS011;1456;51.840;12.184;2024-03-02T06:15:05;61.03;;;33.00;;
2892;SDS011;1456;51.840;12.184;2024-03-02T06:17:30;58.67;;;30.80;;
2892;SDS011;1456;51.840;12.184;2024-03-02T06:19:56;57.30;;;32.20;;
2892;SDS011;1456;51.840;12.184;2024-03-02T06:22:22;58.57;;;30.47;;
2892;SDS011;1456;51.840;12.184;2024-03-02T06:24:49;62.00;;;31.87;;
2892;SDS011;1456;51.840;12.184;2024-03-02T06:27:15;64.87;;;30.27;;
2892;SDS011;1456;51.840;12.184;2024-03-02T06:29:41;64.10;;;32.40;;
2892;SDS011;1456;51.840;12.184;2024-03-02T06:32:07;61.97;;;31.40;;
2892;SDS011;1456;51.840;12.184;2024-03-02T06:34:32;71.00;;;31.37;;
2892;SDS011;1456;51.840;12.184;2024-03-02T06:36:58;61.67;;;28.83;;
2892;SDS011;1456;51.840;12.184;2024-03-02T06:39:24;57.93;;;32.10;;
2892;SDS011;1456;51.840;12.184;2024-03-02T06:41:50;60.27;;;33.60;;
2892;SDS011;1456;51.840;12.184;2024-03-02T06:44:16;59.63;;;32.90;;
2892;SDS011;1456;51.840;12.184;2024-03-02T06:46:42;57.67;;;32.20;;
2892;SDS011;1456;51.840;12.184;2024-03-02T06:49:08;56.57;;;30.90;;
2892;SDS011;1456;51.840;12.184;2024-03-02T06:51:35;63.70;;;32.40;;
2892;SDS011;1456;51.840;12.184;2024-03-02T06:54:01;63.63;;;29.40;;
2892;SDS011;1456;51.840;12.184;2024-03-02T06:56:26;64.70;;;30.60;;
2892;SDS011;1456;51.840;12.184;2024-03-02T06:58:52;56.80;;;32.90;;
2892;SDS011;1456;51.840;12.184;2024-03-02T07:01:17;52.27;;;31.20;;
2892;SDS011;1456;51.840;12.184;2024-03-02T07:03:43;57.27;;;31.53;;
2892;SDS011;1456;51.840;12.184;2024-03-02T07:06:09;59.57;;;31.13;;
2892;SDS011;1456;51.840;12.184;2024-03-02T07:08:34;56.90;;;31.30;;
2892;SDS011;1456;51.840;12.184;2024-03-02T07:11:00;56.50;;;31.30;;
2892;SDS011;1456;51.840;12.184;2024-03-02T07:13:26;57.70;;;32.70;;
2892;SDS011;1456;51.840;12.184;2024-03-02T07:15:52;55.90;;;30.13;;
2892;SDS011;1456;51.840;12.184;2024-03-02T07:18:37;55.10;;;28.53;;
2892;SDS011;1456;51.840;12.184;2024-03-02T07:21:07;55.33;;;30.23;;
2892;SDS011;1456;51.840;12.184;2024-03-02T07:23:32;56.53;;;30.97;;
2892;SDS011;1456;51.840;12.184;2024-03-02T07:25:59;63.53;;;32.67;;
2892;SDS011;1456;51.840;12.184;2024-03-02T07:28:26;54.70;;;29.97;;
2892;SDS011;1456;51.840;12.184;2024-03-02T07:30:58;54.30;;;28.93;;
2892;SDS011;1456;51.840;12.184;2024-03-02T07:33:25;63.20;;;30.60;;
2892;SDS011;1456;51.840;12.184;2024-03-02T07:35:50;50.50;;;28.50;;
2892;SDS011;1456;51.840;12.184;2024-03-02T07:38:16;49.63;;;25.97;;
2892;SDS011;1456;51.840;12.184;2024-03-02T07:40:42;53.00;;;29.83;;
2892;SDS011;1456;51.840;12.184;2024-03-02T07:43:08;56.20;;;28.67;;
2892;SDS011;1456;51.840;12.184;2024-03-02T07:45:33;60.47;;;29.67;;
2892;SDS011;1456;51.840;12.184;2024-03-02T07:48:01;46.93;;;27.90;;
2892;SDS011;1456;51.840;12.184;2024-03-02T07:50:28;54.30;;;29.53;;
2892;SDS011;1456;51.840;12.184;2024-03-02T07:52:55;52.23;;;28.10;;
2892;SDS011;1456;51.840;12.184;2024-03-02T07:55:21;48.77;;;27.10;;
2892;SDS011;1456;51.840;12.184;2024-03-02T07:57:48;45.00;;;26.70;;
2892;SDS011;1456;51.840;12.184;2024-03-02T08:00:15;43.87;;;25.00;;
2892;SDS011;1456;51.840;12.184;2024-03-02T08:02:40;44.80;;;25.40;;
2892;SDS011;1456;51.840;12.184;2024-03-02T08:05:07;44.57;;;26.53;;
2892;SDS011;1456;51.840;12.184;2024-03-02T08:07:33;48.30;;;28.67;;
2892;SDS011;1456;51.840;12.184;2024-03-02T08:09:59;43.07;;;26.83;;
2892;SDS011;1456;51.840;12.184;2024-03-02T08:12:25;43.90;;;27.83;;
2892;SDS011;1456;51.840;12.184;2024-03-02T08:14:50;43.80;;;26.60;;
2892;SDS011;1456;51.840;12.184;2024-03-02T08:17:16;41.10;;;26.70;;
2892;SDS011;1456;51.840;12.184;2024-03-02T08:19:42;40.83;;;24.87;;
2892;SDS011;1456;51.840;12.184;2024-03-02T08:22:09;44.70;;;26.50;;
2892;SDS011;1456;51.840;12.184;2024-03-02T08:24:34;41.20;;;26.20;;
2892;SDS011;1456;51.840;12.184;2024-03-02T08:27:01;41.20;;;25.63;;
2892;SDS011;1456;51.840;12.184;2024-03-02T08:29:26;43.23;;;24.93;;
2892;SDS011;1456;51.840;12.184;2024-03-02T08:31:53;39.00;;;24.50;;
2892;SDS011;1456;51.840;12.184;2024-03-02T08:34:19;36.00;;;23.17;;
2892;SDS011;1456;51.840;12.184;2024-03-02T08:36:45;38.90;;;23.07;;
2892;SDS011;1456;51.840;12.184;2024-03-02T08:39:11;35.30;;;23.10;;
2892;SDS011;1456;51.840;12.184;2024-03-02T08:41:46;32.70;;;21.30;;
2892;SDS011;1456;51.840;12.184;2024-03-02T08:44:12;34.93;;;23.67;;
2892;SDS011;1456;51.840;12.184;2024-03-02T08:46:38;34.33;;;24.33;;
2892;SDS011;1456;51.840;12.184;2024-03-02T08:49:05;40.40;;;24.63;;
2892;SDS011;1456;51.840;12.184;2024-03-02T08:51:31;39.07;;;25.00;;
2892;SDS011;1456;51.840;12.184;2024-03-02T08:53:57;30.87;;;23.30;;
2892;SDS011;1456;51.840;12.184;2024-03-02T08:56:23;38.00;;;26.73;;
2892;SDS011;1456;51.840;12.184;2024-03-02T08:58:49;42.30;;;27.27;;
2892;SDS011;1456;51.840;12.184;2024-03-02T09:01:15;42.43;;;25.87;;
2892;SDS011;1456;51.840;12.184;2024-03-02T09:03:42;37.40;;;24.73;;
2892;SDS011;1456;51.840;12.184;2024-03-02T09:06:11;31.53;;;23.07;;
2892;SDS011;1456;51.840;12.184;2024-03-02T09:08:37;37.50;;;24.13;;
2892;SDS011;1456;51.840;12.184;2024-03-02T09:11:04;36.40;;;24.13;;
2892;SDS011;1456;51.840;12.184;2024-03-02T09:13:30;31.17;;;23.27;;
2892;SDS011;1456;51.840;12.184;2024-03-02T09:15:56;30.07;;;22.27;;
2892;SDS011;1456;51.840;12.184;2024-03-02T09:18:22;34.23;;;24.03;;
2892;SDS011;1456;51.840;12.184;2024-03-02T09:20:48;38.00;;;24.47;;
2892;SDS011;1456;51.840;12.184;2024-03-02T09:23:13;33.37;;;24.10;;
2892;SDS011;1456;51.840;12.184;2024-03-02T09:25:39;37.87;;;24.03;;
2892;SDS011;1456;51.840;12.184;2024-03-02T09:28:05;30.57;;;21.37;;
2892;SDS011;1456;51.840;12.184;2024-03-02T09:30:32;30.53;;;21.77;;
2892;SDS011;1456;51.840;12.184;2024-03-02T09:32:57;34.93;;;22.30;;
2892;SDS011;1456;51.840;12.184;2024-03-02T09:35:23;35.93;;;21.60;;
2892;SDS011;1456;51.840;12.184;2024-03-02T09:37:49;31.77;;;21.73;;
2892;SDS011;1456;51.840;12.184;2024-03-02T09:40:14;31.73;;;21.53;;
2892;SDS011;1456;51.840;12.184;2024-03-02T09:42:41;31.77;;;21.90;;
2892;SDS011;1456;51.840;12.184;2024-03-02T09:45:08;29.30;;;21.67;;
2892;SDS011;1456;51.840;12.184;2024-03-02T09:47:34;27.83;;;19.33;;
2892;SDS011;1456;51.840;12.184;2024-03-02T09:50:00;30.80;;;20.70;;
2892;SDS011;1456;51.840;12.184;2024-03-02T09:52:26;32.00;;;21.37;;
2892;SDS011;1456;51.840;12.184;2024-03-02T09:54:52;33.40;;;22.00;;
2892;SDS011;1456;51.840;12.184;2024-03-02T09:57:17;33.53;;;21.90;;
2892;SDS011;1456;51.840;12.184;2024-03-02T09:59:43;32.83;;;22.10;;
2892;SDS011;1456;51.840;12.184;2024-03-02T10:02:10;32.93;;;21.10;;
2892;SDS011;1456;51.840;12.184;2024-03-02T10:04:36;38.20;;;23.00;;
2892;SDS011;1456;51.840;12.184;2024-03-02T10:09:37;31.00;;;23.47;;
2892;SDS011;1456;51.840;12.184;2024-03-02T10:12:07;38.83;;;22.27;;
2892;SDS011;1456;51.840;12.184;2024-03-02T10:14:33;31.33;;;23.93;;
2892;SDS011;1456;51.840;12.184;2024-03-02T10:17:03;34.27;;;22.07;;
2892;SDS011;1456;51.840;12.184;2024-03-02T10:19:30;36.83;;;23.10;;
2892;SDS011;1456;51.840;12.184;2024-03-02T10:21:58;32.93;;;21.57;;
2892;SDS011;1456;51.840;12.184;2024-03-02T10:24:24;32.40;;;23.17;;
2892;SDS011;1456;51.840;12.184;2024-03-02T10:26:50;35.17;;;20.60;;
2892;SDS011;1456;51.840;12.184;2024-03-02T10:29:17;31.43;;;23.80;;
2892;SDS011;1456;51.840;12.184;2024-03-02T10:31:44;35.37;;;23.30;;
2892;SDS011;1456;51.840;12.184;2024-03-02T10:34:13;32.90;;;24.40;;
2892;SDS011;1456;51.840;12.184;2024-03-02T10:36:41;27.37;;;19.20;;
2892;SDS011;1456;51.840;12.184;2024-03-02T10:39:08;32.33;;;20.33;;
2892;SDS011;1456;51.840;12.184;2024-03-02T10:41:35;33.60;;;22.83;;
2892;SDS011;1456;51.840;12.184;2024-03-02T10:44:05;27.97;;;22.37;;
2892;SDS011;1456;51.840;12.184;2024-03-02T10:46:33;28.93;;;19.70;;
2892;SDS011;1456;51.840;12.184;2024-03-02T10:49:00;28.43;;;21.70;;
2892;SDS011;1456;51.840;12.184;2024-03-02T10:51:27;28.57;;;23.27;;
2892;SDS011;1456;51.840;12.184;2024-03-02T10:53:56;28.00;;;23.77;;
2892;SDS011;1456;51.840;12.184;2024-03-02T10:59:02;26.90;;;24.00;;
2892;SDS011;1456;51.840;12.184;2024-03-02T11:01:32;29.80;;;24.53;;
2892;SDS011;1456;51.840;12.184;2024-03-02T11:03:58;25.50;;;22.43;;
2892;SDS011;1456;51.840;12.184;2024-03-02T11:06:28;25.00;;;19.00;;
2892;SDS011;1456;51.840;12.184;2024-03-02T11:08:55;26.70;;;24.00;;
2892;SDS011;1456;51.840;12.184;2024-03-02T11:11:27;29.20;;;26.40;;
2892;SDS011;1456;51.840;12.184;2024-03-02T11:13:55;32.77;;;27.40;;
2892;SDS011;1456;51.840;12.184;2024-03-02T11:16:33;23.93;;;18.90;;
2892;SDS011;1456;51.840;12.184;2024-03-02T11:19:04;32.30;;;29.13;;
2892;SDS011;1456;51.840;12.184;2024-03-02T11:21:35;32.43;;;29.33;;
2892;SDS011;1456;51.840;12.184;2024-03-02T11:24:46;33.00;;;30.30;;
2892;SDS011;1456;51.840;12.184;2024-03-02T11:26:47;26.70;;;19.77;;
2892;SDS011;1456;51.840;12.184;2024-03-02T11:32:01;38.30;;;35.30;;
2892;SDS011;1456;51.840;12.184;2024-03-02T11:34:31;20.87;;;18.30;;
2892;SDS011;1456;51.840;12.184;2024-03-02T11:37:01;22.73;;;20.30;;
2892;SDS011;1456;51.840;12.184;2024-03-02T11:39:27;36.90;;;34.40;;
2892;SDS011;1456;51.840;12.184;2024-03-02T11:41:53;38.90;;;35.90;;
2892;SDS011;1456;51.840;12.184;2024-03-02T11:44:26;22.73;;;20.50;;
2892;SDS011;1456;51.840;12.184;2024-03-02T11:46:58;41.23;;;38.33;;
2892;SDS011;1456;51.840;12.184;2024-03-02T11:52:06;40.17;;;37.70;;
2892;SDS011;1456;51.840;12.184;2024-03-02T11:54:33;20.53;;;18.60;;
2892;SDS011;1456;51.840;12.184;2024-03-02T11:57:01;35.97;;;33.70;;
2892;SDS011;1456;51.840;12.184;2024-03-02T11:59:28;37.63;;;35.00;;
2892;SDS011;1456;51.840;12.184;2024-03-02T12:01:55;38.30;;;35.80;;
2892;SDS011;1456;51.840;12.184;2024-03-02T12:04:22;22.53;;;20.40;;
2892;SDS011;1456;51.840;12.184;2024-03-02T12:06:54;35.30;;;32.90;;
2892;SDS011;1456;51.840;12.184;2024-03-02T12:09:20;39.10;;;36.80;;
2892;SDS011;1456;51.840;12.184;2024-03-02T12:11:46;22.43;;;20.43;;
2892;SDS011;1456;51.840;12.184;2024-03-02T12:14:12;23.00;;;20.90;;
2892;SDS011;1456;51.840;12.184;2024-03-02T12:16:38;24.43;;;21.90;;
2892;SDS011;1456;51.840;12.184;2024-03-02T12:19:05;24.33;;;22.23;;
2892;SDS011;1456;51.840;12.184;2024-03-02T12:21:31;23.37;;;21.27;;
2892;SDS011;1456;51.840;12.184;2024-03-02T12:23:56;25.30;;;23.00;;
2892;SDS011;1456;51.840;12.184;2024-03-02T12:26:22;22.60;;;20.70;;
2892;SDS011;1456;51.840;12.184;2024-03-02T12:28:49;22.07;;;20.27;;
2892;SDS011;1456;51.840;12.184;2024-03-02T12:31:15;21.50;;;19.73;;
2892;SDS011;1456;51.840;12.184;2024-03-02T12:33:40;21.27;;;19.63;;
2892;SDS011;1456;51.840;12.184;2024-03-02T12:36:09;21.80;;;20.00;;
2892;SDS011;1456;51.840;12.184;2024-03-02T12:38:37;22.40;;;20.43;;
2892;SDS011;1456;51.840;12.184;2024-03-02T12:41:07;21.37;;;19.57;;
2892;SDS011;1456;51.840;12.184;2024-03-02T12:43:33;21.13;;;19.43;;
2892;SDS011;1456;51.840;12.184;2024-03-02T12:45:59;21.57;;;19.87;;
2892;SDS011;1456;51.840;12.184;2024-03-02T12:48:24;22.00;;;20.03;;
2892;SDS011;1456;51.840;12.184;2024-03-02T12:50:50;22.17;;;20.57;;
2892;SDS011;1456;51.840;12.184;2024-03-02T12:53:16;23.50;;;21.70;;
2892;SDS011;1456;51.840;12.184;2024-03-02T12:55:42;22.37;;;20.70;;
2892;SDS011;1456;51.840;12.184;2024-03-02T12:58:16;22.10;;;20.30;;
2892;SDS011;1456;51.840;12.184;2024-03-02T13:00:46;22.60;;;20.97;;
2892;SDS011;1456;51.840;12.184;2024-03-02T13:03:12;22.70;;;21.03;;
2892;SDS011;1456;51.840;12.184;2024-03-02T13:05:38;21.90;;;20.30;;
2892;SDS011;1456;51.840;12.184;2024-03-02T13:08:05;22.13;;;20.57;;
2892;SDS011;1456;51.840;12.184;2024-03-02T13:10:32;21.23;;;19.73;;
2892;SDS011;1456;51.840;12.184;2024-03-02T13:12:58;21.00;;;19.27;;
2892;SDS011;1456;51.840;12.184;2024-03-02T13:15:23;21.40;;;19.83;;
2892;SDS011;1456;51.840;12.184;2024-03-02T13:17:51;21.13;;;19.40;;
2892;SDS011;1456;51.840;12.184;2024-03-02T13:20:17;21.37;;;19.80;;
2892;SDS011;1456;51.840;12.184;2024-03-02T13:22:44;20.00;;;18.53;;
2892;SDS011;1456;51.840;12.184;2024-03-02T13:25:09;20.27;;;18.87;;
2892;SDS011;1456;51.840;12.184;2024-03-02T13:27:35;20.27;;;18.90;;
2892;SDS011;1456;51.840;12.184;2024-03-02T13:30:04;19.90;;;18.60;;
2892;SDS011;1456;51.840;12.184;2024-03-02T13:32:34;18.63;;;17.47;;
2892;SDS011;1456;51.840;12.184;2024-03-02T13:34:59;19.93;;;18.60;;
2892;SDS011;1456;51.840;12.184;2024-03-02T13:37:25;18.67;;;17.37;;
2892;SDS011;1456;51.840;12.184;2024-03-02T13:39:50;19.90;;;18.63;;
2892;SDS011;1456;51.840;12.184;2024-03-02T13:42:16;20.67;;;19.27;;
2892;SDS011;1456;51.840;12.184;2024-03-02T13:44:45;20.67;;;19.13;;
2892;SDS011;1456;51.840;12.184;2024-03-02T13:47:13;19.50;;;18.10;;
2892;SDS011;1456;51.840;12.184;2024-03-02T13:49:38;19.80;;;18.27;;
2892;SDS011;1456;51.840;12.184;2024-03-02T13:52:08;19.73;;;18.40;;
2892;SDS011;1456;51.840;12.184;2024-03-02T13:54:40;20.67;;;19.13;;
2892;SDS011;1456;51.840;12.184;2024-03-02T13:57:07;20.30;;;18.80;;
2892;SDS011;1456;51.840;12.184;2024-03-02T13:59:34;20.00;;;18.60;;
2892;SDS011;1456;51.840;12.184;2024-03-02T14:02:00;20.53;;;19.03;;
2892;SDS011;1456;51.840;12.184;2024-03-02T14:04:27;19.87;;;18.37;;
2892;SDS011;1456;51.840;12.184;2024-03-02T14:06:52;20.23;;;18.83;;
2892;SDS011;1456;51.840;12.184;2024-03-02T14:09:18;19.10;;;17.80;;
2892;SDS011;1456;51.840;12.184;2024-03-02T14:11:45;21.00;;;19.60;;
2892;SDS011;1456;51.840;12.184;2024-03-02T14:14:11;18.70;;;17.50;;
2892;SDS011;1456;51.840;12.184;2024-03-02T14:16:36;19.97;;;18.47;;
2892;SDS011;1456;51.840;12.184;2024-03-02T14:19:02;19.10;;;17.90;;
2892;SDS011;1456;51.840;12.184;2024-03-02T14:21:29;19.40;;;18.10;;
2892;SDS011;1456;51.840;12.184;2024-03-02T14:23:55;19.43;;;18.13;;
2892;SDS011;1456;51.840;12.184;2024-03-02T14:26:21;18.90;;;17.60;;
2892;SDS011;1456;51.840;12.184;2024-03-02T14:28:46;18.13;;;17.00;;
2892;SDS011;1456;51.840;12.184;2024-03-02T14:31:12;19.17;;;17.77;;
2892;SDS011;1456;51.840;12.184;2024-03-02T14:33:38;18.00;;;16.90;;
2892;SDS011;1456;51.840;12.184;2024-03-02T14:36:03;19.40;;;18.20;;
2892;SDS011;1456;51.840;12.184;2024-03-02T14:38:30;18.47;;;17.37;;
2892;SDS011;1456;51.840;12.184;2024-03-02T14:40:56;17.67;;;16.47;;
2892;SDS011;1456;51.840;12.184;2024-03-02T14:43:21;17.40;;;16.30;;
2892;SDS011;1456;51.840;12.184;2024-03-02T14:45:47;17.63;;;16.50;;